sensor_id;sensor_type;location;lat;lon;timestamp;pressure;altitude;pressure_sealevel;temperature;humidity
20630;BME280;17386;43.846;25.950;2023-05-12T00:02:08;101844.06;;;11.84;90.12
20630;BME280;17386;43.846;25.950;2023-05-12T00:04:33;101839.66;;;11.83;90.08
20630;BME280;17386;43.846;25.950;2023-05-12T00:07:00;101842.31;;;11.79;90.30
20630;BME280;17386;43.846;25.950;2023-05-12T00:09:25;101852.22;;;11.74;90.66
20630;BME280;17386;43.846;25.950;2023-05-12T00:11:51;101843.38;;;11.72;90.83
20630;BME280;17386;43.846;25.950;2023-05-12T00:14:16;101846.91;;;11.74;90.66
20630;BME280;17386;43.846;25.950;2023-05-12T00:16:42;101846.13;;;11.69;90.90
20630;BME280;17386;43.846;25.950;2023-05-12T00:19:07;101851.53;;;11.65;91.25
20630;BME280;17386;43.846;25.950;2023-05-12T00:21:33;101840.06;;;11.63;91.33
20630;BME280;17386;43.846;25.950;2023-05-12T00:23:59;101847.13;;;11.64;91.45
20630;BME280;17386;43.846;25.950;2023-05-12T00:26:24;101844.44;;;11.65;91.75
20630;BME280;17386;43.846;25.950;2023-05-12T00:28:49;101844.44;;;11.65;91.87
20630;BME280;17386;43.846;25.950;2023-05-12T00:31:15;101843.59;;;11.63;91.79
20630;BME280;17386;43.846;25.950;2023-05-12T00:33:41;101844.56;;;11.59;91.72
20630;BME280;17386;43.846;25.950;2023-05-12T00:36:07;101845.56;;;11.55;91.94
20630;BME280;17386;43.846;25.950;2023-05-12T00:38:32;101841.19;;;11.51;92.12
20630;BME280;17386;43.846;25.950;2023-05-12T00:40:59;101856.38;;;11.47;92.17
20630;BME280;17386;43.846;25.950;2023-05-12T00:43:25;101844.13;;;11.40;92.61
20630;BME280;17386;43.846;25.950;2023-05-12T00:45:51;101850.31;;;11.41;92.70
20630;BME280;17386;43.846;25.950;2023-05-12T00:48:16;101859.22;;;11.38;92.62
20630;BME280;17386;43.846;25.950;2023-05-12T00:50:42;101851.31;;;11.35;92.76
20630;BME280;17386;43.846;25.950;2023-05-12T00:53:08;101854.03;;;11.32;92.74
20630;BME280;17386;43.846;25.950;2023-05-12T00:55:34;101852.22;;;11.34;92.79
20630;BME280;17386;43.846;25.950;2023-05-12T00:58:01;101855.75;;;11.35;92.62
20630;BME280;17386;43.846;25.950;2023-05-12T01:00:26;101861.13;;;11.32;92.42
20630;BME280;17386;43.846;25.950;2023-05-12T01:02:52;101868.34;;;11.27;92.57
20630;BME280;17386;43.846;25.950;2023-05-12T01:05:17;101862.25;;;11.21;92.79
20630;BME280;17386;43.846;25.950;2023-05-12T01:07:43;101854.31;;;11.18;92.67
20630;BME280;17386;43.846;25.950;2023-05-12T01:10:18;101860.66;;;11.11;92.95
20630;BME280;17386;43.846;25.950;2023-05-12T01:12:44;101863.47;;;11.05;92.90
20630;BME280;17386;43.846;25.950;2023-05-12T01:15:09;101860.00;;;11.00;93.22
20630;BME280;17386;43.846;25.950;2023-05-12T01:17:36;101851.34;;;10.89;93.55
20630;BME280;17386;43.846;25.950;2023-05-12T01:20:04;101863.63;;;10.96;93.54
20630;BME280;17386;43.846;25.950;2023-05-12T01:22:31;101848.69;;;10.89;93.52
20630;BME280;17386;43.846;25.950;2023-05-12T01:25:03;101856.75;;;10.86;93.70
20630;BME280;17386;43.846;25.950;2023-05-12T01:27:29;101863.84;;;10.84;94.19
20630;BME280;17386;43.846;25.950;2023-05-12T01:29:57;101858.56;;;10.82;94.00
20630;BME280;17386;43.846;25.950;2023-05-12T01:32:23;101860.47;;;10.76;94.05
20630;BME280;17386;43.846;25.950;2023-05-12T01:34:48;101856.38;;;10.58;94.85
20630;BME280;17386;43.846;25.950;2023-05-12T01:37:16;101861.63;;;10.61;95.01
20630;BME280;17386;43.846;25.950;2023-05-12T01:39:42;101846.72;;;10.52;95.26
20630;BME280;17386;43.846;25.950;2023-05-12T01:42:08;101859.00;;;10.59;95.25
20630;BME280;17386;43.846;25.950;2023-05-12T01:44:33;101856.38;;;10.58;95.47
20630;BME280;17386;43.846;25.950;2023-05-12T01:46:58;101852.00;;;10.54;95.88
20630;BME280;17386;43.846;25.950;2023-05-12T01:49:25;101850.19;;;10.56;95.92
20630;BME280;17386;43.846;25.950;2023-05-12T01:51:51;101849.44;;;10.51;95.89
20630;BME280;17386;43.846;25.950;2023-05-12T01:54:16;101848.56;;;10.50;96.27
20630;BME280;17386;43.846;25.950;2023-05-12T01:56:41;101846.81;;;10.48;96.56
20630;BME280;17386;43.846;25.950;2023-05-12T01:59:07;101839.78;;;10.45;96.66
20630;BME280;17386;43.846;25.950;2023-05-12T02:01:32;101841.47;;;10.49;96.47
20630;BME280;17386;43.846;25.950;2023-05-12T02:03:58;101841.56;;;10.45;96.86
20630;BME280;17386;43.846;25.950;2023-05-12T02:06:24;101848.63;;;10.46;96.59
20630;BME280;17386;43.846;25.950;2023-05-12T02:08:50;101849.56;;;10.43;96.89
20630;BME280;17386;43.846;25.950;2023-05-12T02:11:16;101838.94;;;10.43;96.91
20630;BME280;17386;43.846;25.950;2023-05-12T02:13:41;101838.91;;;10.45;96.94
20630;BME280;17386;43.846;25.950;2023-05-12T02:16:10;101843.34;;;10.43;96.93
20630;BME280;17386;43.846;25.950;2023-05-12T02:18:35;101844.19;;;10.46;97.03
20630;BME280;17386;43.846;25.950;2023-05-12T02:21:01;101840.72;;;10.41;96.83
20630;BME280;17386;43.846;25.950;2023-05-12T02:23:26;101843.44;;;10.38;97.02
20630;BME280;17386;43.846;25.950;2023-05-12T02:25:52;101839.06;;;10.34;97.18
20630;BME280;17386;43.846;25.950;2023-05-12T02:28:17;101853.22;;;10.34;97.50
20630;BME280;17386;43.846;25.950;2023-05-12T02:30:47;101845.28;;;10.33;97.98
20630;BME280;17386;43.846;25.950;2023-05-12T02:33:14;101842.59;;;10.34;97.68
20630;BME280;17386;43.846;25.950;2023-05-12T02:35:39;101851.47;;;10.33;98.15
20630;BME280;17386;43.846;25.950;2023-05-12T02:38:05;101844.47;;;10.29;98.48
20630;BME280;17386;43.846;25.950;2023-05-12T02:40:30;101852.41;;;10.29;98.93
20630;BME280;17386;43.846;25.950;2023-05-12T02:42:56;101846.25;;;10.30;98.91
20630;BME280;17386;43.846;25.950;2023-05-12T02:45:21;101840.94;;;10.30;99.26
20630;BME280;17386;43.846;25.950;2023-05-12T02:47:46;101855.00;;;10.34;99.32
20630;BME280;17386;43.846;25.950;2023-05-12T02:50:13;101849.78;;;10.31;99.56
20630;BME280;17386;43.846;25.950;2023-05-12T02:52:39;101858.59;;;10.31;100.00
20630;BME280;17386;43.846;25.950;2023-05-12T02:55:05;101868.25;;;10.37;100.00
20630;BME280;17386;43.846;25.950;2023-05-12T02:57:30;101862.94;;;10.37;100.00
20630;BME280;17386;43.846;25.950;2023-05-12T03:00:02;101864.75;;;10.33;100.00
20630;BME280;17386;43.846;25.950;2023-05-12T03:02:35;101867.38;;;10.35;100.00
20630;BME280;17386;43.846;25.950;2023-05-12T03:05:01;101867.34;;;10.38;100.00
20630;BME280;17386;43.846;25.950;2023-05-12T03:07:27;101867.34;;;10.38;100.00
20630;BME280;17386;43.846;25.950;2023-05-12T03:09:52;101866.53;;;10.33;100.00
20630;BME280;17386;43.846;25.950;2023-05-12T03:12:17;101874.38;;;10.40;100.00
20630;BME280;17386;43.846;25.950;2023-05-12T03:14:43;101869.91;;;10.43;100.00
20630;BME280;17386;43.846;25.950;2023-05-12T03:17:08;101876.03;;;10.48;100.00
20630;BME280;17386;43.846;25.950;2023-05-12T03:19:34;101873.41;;;10.46;100.00
20630;BME280;17386;43.846;25.950;2023-05-12T03:22:00;101876.94;;;10.47;100.00
20630;BME280;17386;43.846;25.950;2023-05-12T03:24:26;101876.03;;;10.48;100.00
20630;BME280;17386;43.846;25.950;2023-05-12T03:26:51;101874.22;;;10.50;100.00
20630;BME280;17386;43.846;25.950;2023-05-12T03:29:17;101889.25;;;10.52;100.00
20630;BME280;17386;43.846;25.950;2023-05-12T03:31:42;101880.38;;;10.53;100.00
20630;BME280;17386;43.846;25.950;2023-05-12T03:34:07;101888.28;;;10.58;100.00
20630;BME280;17386;43.846;25.950;2023-05-12T03:36:33;101891.84;;;10.57;100.00
20630;BME280;17386;43.846;25.950;2023-05-12T03:38:58;101897.16;;;10.55;100.00
20630;BME280;17386;43.846;25.950;2023-05-12T03:41:23;101889.94;;;10.62;100.00
20630;BME280;17386;43.846;25.950;2023-05-12T03:43:49;101894.25;;;10.69;100.00
20630;BME280;17386;43.846;25.950;2023-05-12T03:46:14;101890.91;;;10.59;100.00
20630;BME280;17386;43.846;25.950;2023-05-12T03:48:40;101896.91;;;10.69;100.00
20630;BME280;17386;43.846;25.950;2023-05-12T03:51:05;101894.25;;;10.71;100.00
20630;BME280;17386;43.846;25.950;2023-05-12T03:53:31;101889.75;;;10.74;100.00
20630;BME280;17386;43.846;25.950;2023-05-12T03:55:56;101900.31;;;10.77;100.00
20630;BME280;17386;43.846;25.950;2023-05-12T03:58:22;101899.38;;;10.80;100.00
20630;BME280;17386;43.846;25.950;2023-05-12T04:00:48;101902.84;;;10.85;100.00
20630;BME280;17386;43.846;25.950;2023-05-12T04:03:15;101899.28;;;10.86;100.00
20630;BME280;17386;43.846;25.950;2023-05-12T04:05:40;101902.84;;;10.83;100.00
20630;BME280;17386;43.846;25.950;2023-05-12T04:08:07;101909.81;;;10.90;100.00
20630;BME280;17386;43.846;25.950;2023-05-12T04:10:37;101914.19;;;10.94;100.00
20630;BME280;17386;43.846;25.950;2023-05-12T04:13:03;101914.09;;;10.98;100.00
20630;BME280;17386;43.846;25.950;2023-05-12T04:15:28;101920.28;;;11.00;100.00
20630;BME280;17386;43.846;25.950;2023-05-12T04:17:53;101917.50;;;11.07;100.00
20630;BME280;17386;43.846;25.950;2023-05-12T04:20:19;101912.16;;;11.07;100.00
20630;BME280;17386;43.846;25.950;2023-05-12T04:22:44;101926.28;;;11.11;100.00
20630;BME280;17386;43.846;25.950;2023-05-12T04:25:11;101923.66;;;11.09;100.00
20630;BME280;17386;43.846;25.950;2023-05-12T04:27:37;101921.75;;;11.16;100.00
20630;BME280;17386;43.846;25.950;2023-05-12T04:30:02;101913.72;;;11.19;100.00
20630;BME280;17386;43.846;25.950;2023-05-12T04:32:28;101929.53;;;11.27;100.00
20630;BME280;17386;43.846;25.950;2023-05-12T04:34:53;101924.22;;;11.27;100.00
20630;BME280;17386;43.846;25.950;2023-05-12T04:37:20;101927.63;;;11.33;100.00
20630;BME280;17386;43.846;25.950;2023-05-12T04:39:46;101929.25;;;11.40;100.00
20630;BME280;17386;43.846;25.950;2023-05-12T04:42:12;101929.94;;;11.50;100.00
20630;BME280;17386;43.846;25.950;2023-05-12T04:44:37;101934.47;;;11.45;100.00
20630;BME280;17386;43.846;25.950;2023-05-12T04:47:03;101930.72;;;11.55;100.00
20630;BME280;17386;43.846;25.950;2023-05-12T04:49:28;101933.31;;;11.58;100.00
20630;BME280;17386;43.846;25.950;2023-05-12T04:51:54;101937.59;;;11.65;100.00
20630;BME280;17386;43.846;25.950;2023-05-12T04:54:20;101941.09;;;11.69;100.00
20630;BME280;17386;43.846;25.950;2023-05-12T04:56:46;101938.25;;;11.76;100.00
20630;BME280;17386;43.846;25.950;2023-05-12T04:59:11;101941.72;;;11.80;100.00
20630;BME280;17386;43.846;25.950;2023-05-12T05:01:40;101945.94;;;11.92;100.00
20630;BME280;17386;43.846;25.950;2023-05-12T05:04:05;101949.28;;;12.01;100.00
20630;BME280;17386;43.846;25.950;2023-05-12T05:06:31;101942.03;;;12.08;100.00
20630;BME280;17386;43.846;25.950;2023-05-12T05:08:56;101948.03;;;12.18;100.00
20630;BME280;17386;43.846;25.950;2023-05-12T05:11:22;101948.72;;;12.26;100.00
20630;BME280;17386;43.846;25.950;2023-05-12T05:13:47;101948.63;;;12.30;100.00
20630;BME280;17386;43.846;25.950;2023-05-12T05:16:13;101945.81;;;12.35;100.00
20630;BME280;17386;43.846;25.950;2023-05-12T05:18:38;101945.88;;;12.33;100.00
20630;BME280;17386;43.846;25.950;2023-05-12T05:21:06;101953.81;;;12.35;100.00
20630;BME280;17386;43.846;25.950;2023-05-12T05:23:32;101942.13;;;12.41;100.00
20630;BME280;17386;43.846;25.950;2023-05-12T05:25:57;101950.06;;;12.44;100.00
20630;BME280;17386;43.846;25.950;2023-05-12T05:28:22;101954.25;;;12.54;100.00
20630;BME280;17386;43.846;25.950;2023-05-12T05:30:48;101955.06;;;12.57;100.00
20630;BME280;17386;43.846;25.950;2023-05-12T05:33:13;101963.03;;;12.59;100.00
20630;BME280;17386;43.846;25.950;2023-05-12T05:35:39;101961.13;;;12.63;100.00
20630;BME280;17386;43.846;25.950;2023-05-12T05:38:04;101954.16;;;12.58;100.00
20630;BME280;17386;43.846;25.950;2023-05-12T05:40:30;101962.97;;;12.60;100.00
20630;BME280;17386;43.846;25.950;2023-05-12T05:42:55;101961.13;;;12.64;100.00
20630;BME280;17386;43.846;25.950;2023-05-12T05:45:21;101959.28;;;12.66;100.00
20630;BME280;17386;43.846;25.950;2023-05-12T05:47:46;101964.53;;;12.69;100.00
20630;BME280;17386;43.846;25.950;2023-05-12T05:50:14;101968.25;;;12.64;100.00
20630;BME280;17386;43.846;25.950;2023-05-12T05:52:39;101962.00;;;12.65;100.00
20630;BME280;17386;43.846;25.950;2023-05-12T05:55:05;101958.31;;;12.70;100.00
20630;BME280;17386;43.846;25.950;2023-05-12T05:57:30;101965.19;;;12.79;100.00
20630;BME280;17386;43.846;25.950;2023-05-12T05:59:56;101968.63;;;12.84;100.00
20630;BME280;17386;43.846;25.950;2023-05-12T06:02:21;101964.06;;;12.87;100.00
20630;BME280;17386;43.846;25.950;2023-05-12T06:04:48;101965.78;;;12.90;100.00
20630;BME280;17386;43.846;25.950;2023-05-12T06:07:13;101967.19;;;13.05;100.00
20630;BME280;17386;43.846;25.950;2023-05-12T06:09:38;101965.19;;;13.13;100.00
20630;BME280;17386;43.846;25.950;2023-05-12T06:12:04;101970.25;;;13.24;100.00
20630;BME280;17386;43.846;25.950;2023-05-12T06:14:29;101979.13;;;13.24;100.00
20630;BME280;17386;43.846;25.950;2023-05-12T06:16:55;101973.63;;;13.30;100.00
20630;BME280;17386;43.846;25.950;2023-05-12T06:19:20;101969.16;;;13.31;100.00
20630;BME280;17386;43.846;25.950;2023-05-12T06:21:45;101976.84;;;13.43;100.00
20630;BME280;17386;43.846;25.950;2023-05-12T06:24:11;101968.72;;;13.48;100.00
20630;BME280;17386;43.846;25.950;2023-05-12T06:26:36;101969.38;;;13.56;100.00
20630;BME280;17386;43.846;25.950;2023-05-12T06:29:02;101969.19;;;13.62;100.00
20630;BME280;17386;43.846;25.950;2023-05-12T06:31:30;101951.59;;;13.55;100.00
20630;BME280;17386;43.846;25.950;2023-05-12T06:33:55;101976.22;;;13.66;100.00
20630;BME280;17386;43.846;25.950;2023-05-12T06:36:21;101968.19;;;13.66;100.00
20630;BME280;17386;43.846;25.950;2023-05-12T06:38:46;101968.91;;;13.73;100.00
20630;BME280;17386;43.846;25.950;2023-05-12T06:41:12;101975.06;;;13.75;100.00
20630;BME280;17386;43.846;25.950;2023-05-12T06:43:37;101970.25;;;13.87;100.00
20630;BME280;17386;43.846;25.950;2023-05-12T06:46:03;101974.50;;;13.93;99.86
20630;BME280;17386;43.846;25.950;2023-05-12T06:48:28;101976.84;;;14.04;99.59
20630;BME280;17386;43.846;25.950;2023-05-12T06:50:53;101968.94;;;14.01;99.34
20630;BME280;17386;43.846;25.950;2023-05-12T06:53:19;101972.22;;;14.10;98.96
20630;BME280;17386;43.846;25.950;2023-05-12T06:55:44;101972.00;;;14.16;98.10
20630;BME280;17386;43.846;25.950;2023-05-12T06:58:11;101974.44;;;14.24;97.84
20630;BME280;17386;43.846;25.950;2023-05-12T07:00:36;101970.59;;;14.33;97.47
20630;BME280;17386;43.846;25.950;2023-05-12T07:03:02;101974.06;;;14.36;97.17
20630;BME280;17386;43.846;25.950;2023-05-12T07:05:28;101974.88;;;14.38;95.46
20630;BME280;17386;43.846;25.950;2023-05-12T07:07:53;101979.97;;;14.47;93.89
20630;BME280;17386;43.846;25.950;2023-05-12T07:10:18;101965.72;;;14.47;92.48
20630;BME280;17386;43.846;25.950;2023-05-12T07:12:45;101962.78;;;14.55;92.70
20630;BME280;17386;43.846;25.950;2023-05-12T07:15:10;101970.59;;;14.62;92.46
20630;BME280;17386;43.846;25.950;2023-05-12T07:17:36;101972.03;;;14.72;92.47
20630;BME280;17386;43.846;25.950;2023-05-12T07:20:01;101980.84;;;14.76;92.06
20630;BME280;17386;43.846;25.950;2023-05-12T07:22:29;101975.22;;;14.84;90.12
20630;BME280;17386;43.846;25.950;2023-05-12T07:24:56;101977.78;;;14.87;88.78
20630;BME280;17386;43.846;25.950;2023-05-12T07:27:21;101983.06;;;14.88;87.23
20630;BME280;17386;43.846;25.950;2023-05-12T07:29:47;101975.91;;;14.89;86.63
20630;BME280;17386;43.846;25.950;2023-05-12T07:32:12;101988.13;;;14.97;86.05
20630;BME280;17386;43.846;25.950;2023-05-12T07:34:38;101982.50;;;15.05;84.05
20630;BME280;17386;43.846;25.950;2023-05-12T07:37:03;101984.25;;;15.06;81.75
20630;BME280;17386;43.846;25.950;2023-05-12T07:39:30;101990.28;;;15.13;80.63
20630;BME280;17386;43.846;25.950;2023-05-12T07:41:56;101989.13;;;15.20;78.03
20630;BME280;17386;43.846;25.950;2023-05-12T07:44:22;101988.31;;;15.18;76.80
20630;BME280;17386;43.846;25.950;2023-05-12T07:46:48;101996.00;;;15.27;76.97
20630;BME280;17386;43.846;25.950;2023-05-12T07:49:13;101994.88;;;15.34;76.50
20630;BME280;17386;43.846;25.950;2023-05-12T07:51:39;101993.78;;;15.40;75.83
20630;BME280;17386;43.846;25.950;2023-05-12T07:54:04;101987.38;;;15.44;74.94
20630;BME280;17386;43.846;25.950;2023-05-12T07:56:31;101979.09;;;15.51;74.14
20630;BME280;17386;43.846;25.950;2023-05-12T07:58:57;101982.66;;;15.50;74.29
20630;BME280;17386;43.846;25.950;2023-05-12T08:01:23;101981.50;;;15.57;72.85
20630;BME280;17386;43.846;25.950;2023-05-12T08:03:49;101992.75;;;15.69;69.82
20630;BME280;17386;43.846;25.950;2023-05-12T08:06:16;101990.72;;;15.75;69.62
20630;BME280;17386;43.846;25.950;2023-05-12T08:08:41;101991.44;;;15.80;68.74
20630;BME280;17386;43.846;25.950;2023-05-12T08:11:07;101988.44;;;15.88;67.54
20630;BME280;17386;43.846;25.950;2023-05-12T08:13:35;101997.06;;;15.96;66.97
20630;BME280;17386;43.846;25.950;2023-05-12T08:16:00;101991.94;;;15.90;66.76
20630;BME280;17386;43.846;25.950;2023-05-12T08:18:26;101988.78;;;16.02;67.08
20630;BME280;17386;43.846;25.950;2023-05-12T08:20:51;101990.97;;;15.93;66.24
20630;BME280;17386;43.846;25.950;2023-05-12T08:23:17;101996.03;;;16.00;65.87
20630;BME280;17386;43.846;25.950;2023-05-12T08:25:42;101986.75;;;16.09;65.68
20630;BME280;17386;43.846;25.950;2023-05-12T08:28:09;101983.91;;;16.13;64.75
20630;BME280;17386;43.846;25.950;2023-05-12T08:30:35;101986.53;;;16.15;64.41
20630;BME280;17386;43.846;25.950;2023-05-12T08:33:02;101982.03;;;16.16;64.59
20630;BME280;17386;43.846;25.950;2023-05-12T08:35:28;101997.63;;;16.28;63.96
20630;BME280;17386;43.846;25.950;2023-05-12T08:37:55;101995.38;;;16.39;63.72
20630;BME280;17386;43.846;25.950;2023-05-12T08:40:22;101984.47;;;16.44;63.59
20630;BME280;17386;43.846;25.950;2023-05-12T08:43:12;101993.97;;;16.52;63.50
20630;BME280;17386;43.846;25.950;2023-05-12T08:45:39;101991.56;;;16.66;62.97
20630;BME280;17386;43.846;25.950;2023-05-12T08:48:05;101984.88;;;16.78;62.68
20630;BME280;17386;43.846;25.950;2023-05-12T08:50:34;101987.66;;;16.97;62.15
20630;BME280;17386;43.846;25.950;2023-05-12T08:53:02;101980.75;;;17.12;60.46
20630;BME280;17386;43.846;25.950;2023-05-12T08:55:28;101984.22;;;17.14;60.23
20630;BME280;17386;43.846;25.950;2023-05-12T08:57:55;101967.16;;;17.16;59.67
20630;BME280;17386;43.846;25.950;2023-05-12T09:00:22;101969.22;;;17.30;60.07
20630;BME280;17386;43.846;25.950;2023-05-12T09:02:50;101980.41;;;17.40;59.98
20630;BME280;17386;43.846;25.950;2023-05-12T09:05:17;101978.94;;;17.53;59.71
20630;BME280;17386;43.846;25.950;2023-05-12T09:07:43;101966.34;;;17.54;58.70
20630;BME280;17386;43.846;25.950;2023-05-12T09:10:14;101980.31;;;17.62;58.86
20630;BME280;17386;43.846;25.950;2023-05-12T09:12:41;101976.66;;;17.44;58.92
20630;BME280;17386;43.846;25.950;2023-05-12T09:15:14;101972.34;;;17.40;59.15
20630;BME280;17386;43.846;25.950;2023-05-12T09:17:42;101965.97;;;17.42;58.82
20630;BME280;17386;43.846;25.950;2023-05-12T09:20:08;101959.44;;;17.48;58.95
20630;BME280;17386;43.846;25.950;2023-05-12T09:22:34;101966.34;;;17.54;59.40
20630;BME280;17386;43.846;25.950;2023-05-12T09:25:00;101969.66;;;17.60;58.16
20630;BME280;17386;43.846;25.950;2023-05-12T09:27:27;101962.44;;;17.61;57.98
20630;BME280;17386;43.846;25.950;2023-05-12T09:29:53;101965.94;;;17.63;57.76
20630;BME280;17386;43.846;25.950;2023-05-12T09:32:32;101958.97;;;17.59;57.32
20630;BME280;17386;43.846;25.950;2023-05-12T09:35:04;101969.06;;;17.33;58.60
20630;BME280;17386;43.846;25.950;2023-05-12T09:37:31;101962.41;;;17.21;59.34
20630;BME280;17386;43.846;25.950;2023-05-12T09:40:01;101967.94;;;17.18;59.48
20630;BME280;17386;43.846;25.950;2023-05-12T09:42:28;101958.94;;;17.19;59.92
20630;BME280;17386;43.846;25.950;2023-05-12T09:47:27;101960.91;;;17.16;60.25
20630;BME280;17386;43.846;25.950;2023-05-12T09:49:53;101967.41;;;17.10;60.60
20630;BME280;17386;43.846;25.950;2023-05-12T09:52:22;101972.63;;;17.13;59.78
20630;BME280;17386;43.846;25.950;2023-05-12T09:54:47;101971.28;;;17.03;59.95
20630;BME280;17386;43.846;25.950;2023-05-12T09:57:14;101969.34;;;17.07;59.92
20630;BME280;17386;43.846;25.950;2023-05-12T09:59:42;101974.78;;;17.05;58.78
20630;BME280;17386;43.846;25.950;2023-05-12T10:02:10;101973.38;;;16.97;59.42
20630;BME280;17386;43.846;25.950;2023-05-12T10:04:49;101968.13;;;16.93;59.60
20630;BME280;17386;43.846;25.950;2023-05-12T10:07:20;101973.81;;;16.86;59.23
20630;BME280;17386;43.846;25.950;2023-05-12T10:09:48;101970.16;;;16.88;59.80
20630;BME280;17386;43.846;25.950;2023-05-12T10:12:15;101968.44;;;16.86;59.39
20630;BME280;17386;43.846;25.950;2023-05-12T10:14:41;101969.47;;;17.04;59.08
20630;BME280;17386;43.846;25.950;2023-05-12T10:17:08;101971.41;;;17.20;58.50
20630;BME280;17386;43.846;25.950;2023-05-12T10:19:34;101957.09;;;17.40;57.91
20630;BME280;17386;43.846;25.950;2023-05-12T10:22:00;101955.19;;;17.63;56.61
20630;BME280;17386;43.846;25.950;2023-05-12T10:24:27;101949.16;;;17.78;56.54
20630;BME280;17386;43.846;25.950;2023-05-12T10:26:56;101949.28;;;17.75;55.77
20630;BME280;17386;43.846;25.950;2023-05-12T10:29:25;101956.34;;;17.96;55.64
20630;BME280;17386;43.846;25.950;2023-05-12T10:31:57;101956.78;;;18.06;55.02
20630;BME280;17386;43.846;25.950;2023-05-12T10:34:31;101955.84;;;18.07;53.62
20630;BME280;17386;43.846;25.950;2023-05-12T10:36:57;101959.78;;;18.00;53.46
20630;BME280;17386;43.846;25.950;2023-05-12T10:39:30;101955.34;;;17.99;53.19
20630;BME280;17386;43.846;25.950;2023-05-12T10:42:00;101957.09;;;18.00;52.46
20630;BME280;17386;43.846;25.950;2023-05-12T10:44:27;101951.84;;;17.97;53.82
20630;BME280;17386;43.846;25.950;2023-05-12T10:46:56;101955.38;;;17.97;53.12
20630;BME280;17386;43.846;25.950;2023-05-12T10:49:31;101957.22;;;17.97;51.69
20630;BME280;17386;43.846;25.950;2023-05-12T10:51:59;101953.22;;;17.87;51.16
20630;BME280;17386;43.846;25.950;2023-05-12T10:54:25;101959.03;;;17.77;50.85
20630;BME280;17386;43.846;25.950;2023-05-12T10:56:51;101948.56;;;17.71;51.39
20630;BME280;17386;43.846;25.950;2023-05-12T11:02:13;101950.69;;;17.63;50.88
20630;BME280;17386;43.846;25.950;2023-05-12T11:04:50;101945.19;;;17.66;51.21
20630;BME280;17386;43.846;25.950;2023-05-12T11:07:19;101951.50;;;17.65;49.77
20630;BME280;17386;43.846;25.950;2023-05-12T11:09:46;101952.13;;;17.52;49.73
20630;BME280;17386;43.846;25.950;2023-05-12T11:12:12;101936.38;;;17.44;50.18
20630;BME280;17386;43.846;25.950;2023-05-12T11:14:39;101946.00;;;17.48;50.29
20630;BME280;17386;43.846;25.950;2023-05-12T11:17:05;101940.38;;;17.54;50.00
20630;BME280;17386;43.846;25.950;2023-05-12T11:19:31;101942.78;;;17.60;50.25
20630;BME280;17386;43.846;25.950;2023-05-12T11:22:04;101953.53;;;17.60;49.49
20630;BME280;17386;43.846;25.950;2023-05-12T11:24:29;101945.91;;;17.70;49.40
20630;BME280;17386;43.846;25.950;2023-05-12T11:26:54;101942.25;;;17.72;49.19
20630;BME280;17386;43.846;25.950;2023-05-12T11:29:20;101939.66;;;17.69;49.84
20630;BME280;17386;43.846;25.950;2023-05-12T11:31:49;101949.44;;;17.70;49.37
20630;BME280;17386;43.846;25.950;2023-05-12T11:34:20;101941.22;;;17.75;48.81
20630;BME280;17386;43.846;25.950;2023-05-12T11:36:46;101948.41;;;17.74;48.46
20630;BME280;17386;43.846;25.950;2023-05-12T11:39:16;101942.75;;;17.81;48.77
20630;BME280;17386;43.846;25.950;2023-05-12T11:41:43;101940.84;;;17.83;48.48
20630;BME280;17386;43.846;25.950;2023-05-12T11:44:30;101932.00;;;17.81;48.17
20630;BME280;17386;43.846;25.950;2023-05-12T11:47:12;101935.47;;;17.83;48.83
20630;BME280;17386;43.846;25.950;2023-05-12T11:49:52;101939.63;;;17.90;48.46
20630;BME280;17386;43.846;25.950;2023-05-12T11:52:20;101939.34;;;17.96;47.85
20630;BME280;17386;43.846;25.950;2023-05-12T11:54:49;101942.78;;;17.99;47.18
20630;BME280;17386;43.846;25.950;2023-05-12T11:57:29;101935.56;;;18.00;47.08
20630;BME280;17386;43.846;25.950;2023-05-12T11:59:57;101930.47;;;17.94;46.40
20630;BME280;17386;43.846;25.950;2023-05-12T12:02:23;101930.84;;;18.05;46.08
20630;BME280;17386;43.846;25.950;2023-05-12T12:04:48;101926.38;;;18.04;45.64
20630;BME280;17386;43.846;25.950;2023-05-12T12:07:14;101919.16;;;18.06;46.10
20630;BME280;17386;43.846;25.950;2023-05-12T12:09:40;101917.25;;;18.08;46.09
20630;BME280;17386;43.846;25.950;2023-05-12T12:12:07;101916.22;;;18.11;44.72
20630;BME280;17386;43.846;25.950;2023-05-12T12:14:34;101916.16;;;18.12;44.73
20630;BME280;17386;43.846;25.950;2023-05-12T12:17:00;101910.91;;;18.09;45.12
20630;BME280;17386;43.846;25.950;2023-05-12T12:19:26;101909.47;;;18.02;44.90
20630;BME280;17386;43.846;25.950;2023-05-12T12:21:53;101908.09;;;18.12;44.66
20630;BME280;17386;43.846;25.950;2023-05-12T12:24:19;101905.31;;;18.14;44.33
20630;BME280;17386;43.846;25.950;2023-05-12T12:26:44;101906.97;;;18.16;44.36
20630;BME280;17386;43.846;25.950;2023-05-12T12:29:09;101903.63;;;18.11;43.75
20630;BME280;17386;43.846;25.950;2023-05-12T12:31:35;101903.50;;;18.14;44.14
20630;BME280;17386;43.846;25.950;2023-05-12T12:34:01;101903.03;;;18.23;44.39
20630;BME280;17386;43.846;25.950;2023-05-12T12:36:28;101903.78;;;18.27;44.98
20630;BME280;17386;43.846;25.950;2023-05-12T12:38:53;101909.38;;;18.22;45.32
20630;BME280;17386;43.846;25.950;2023-05-12T12:41:18;101899.69;;;18.18;44.92